sensor_id;sensor_type;location;lat;lon;timestamp;P1;durP1;ratioP1;P2;durP2;ratioP2
18776;SDS011;9517;51.174;4.160;2023-04-03T00:02:10;16.10;;;7.83;;
18776;SDS011;9517;51.174;4.160;2023-04-03T00:04:37;15.90;;;7.93;;
18776;SDS011;9517;51.174;4.160;2023-04-03T00:07:04;16.10;;;8.40;;
18776;SDS011;9517;51.174;4.160;2023-04-03T00:09:31;16.00;;;8.50;;
18776;SDS011;9517;51.174;4.160;2023-04-03T00:11:58;15.90;;;8.40;;
18776;SDS011;9517;51.174;4.160;2023-04-03T00:14:25;19.47;;;8.90;;
18776;SDS011;9517;51.174;4.160;2023-04-03T00:16:53;18.17;;;8.93;;
18776;SDS011;9517;51.174;4.160;2023-04-03T00:19:22;14.80;;;8.43;;
18776;SDS011;9517;51.174;4.160;2023-04-03T00:21:49;15.33;;;8.53;;
18776;SDS011;9517;51.174;4.160;2023-04-03T00:24:16;18.13;;;8.93;;
18776;SDS011;9517;51.174;4.160;2023-04-03T00:26:43;17.27;;;8.73;;
18776;SDS011;9517;51.174;4.160;2023-04-03T00:29:10;17.93;;;9.63;;
18776;SDS011;9517;51.174;4.160;2023-04-03T00:31:37;20.23;;;9.23;;
18776;SDS011;9517;51.174;4.160;2023-04-03T00:34:04;17.53;;;9.07;;
18776;SDS011;9517;51.174;4.160;2023-04-03T00:36:32;16.37;;;9.50;;
18776;SDS011;9517;51.174;4.160;2023-04-03T00:39:00;16.63;;;8.63;;
18776;SDS011;9517;51.174;4.160;2023-04-03T00:41:26;22.07;;;9.13;;
18776;SDS011;9517;51.174;4.160;2023-04-03T00:43:53;18.80;;;8.73;;
18776;SDS011;9517;51.174;4.160;2023-04-03T00:46:20;17.13;;;8.57;;
18776;SDS011;9517;51.174;4.160;2023-04-03T00:48:48;16.23;;;8.77;;
18776;SDS011;9517;51.174;4.160;2023-04-03T00:51:16;16.53;;;8.43;;
18776;SDS011;9517;51.174;4.160;2023-04-03T00:53:47;17.23;;;9.10;;
18776;SDS011;9517;51.174;4.160;2023-04-03T00:56:19;15.77;;;8.70;;
18776;SDS011;9517;51.174;4.160;2023-04-03T00:58:50;19.63;;;9.93;;
18776;SDS011;9517;51.174;4.160;2023-04-03T01:01:21;15.93;;;8.87;;
18776;SDS011;9517;51.174;4.160;2023-04-03T01:03:50;17.67;;;8.87;;
18776;SDS011;9517;51.174;4.160;2023-04-03T01:06:20;19.67;;;10.70;;
18776;SDS011;9517;51.174;4.160;2023-04-03T01:08:52;16.50;;;9.50;;
18776;SDS011;9517;51.174;4.160;2023-04-03T01:11:21;17.23;;;8.77;;
18776;SDS011;9517;51.174;4.160;2023-04-03T01:13:48;18.20;;;9.93;;
18776;SDS011;9517;51.174;4.160;2023-04-03T01:16:15;17.73;;;10.13;;
18776;SDS011;9517;51.174;4.160;2023-04-03T01:18:42;19.50;;;10.27;;
18776;SDS011;9517;51.174;4.160;2023-04-03T01:24:34;17.83;;;9.87;;
18776;SDS011;9517;51.174;4.160;2023-04-03T01:27:04;16.27;;;10.47;;
18776;SDS011;9517;51.174;4.160;2023-04-03T01:29:32;18.20;;;10.17;;
18776;SDS011;9517;51.174;4.160;2023-04-03T01:32:01;22.63;;;9.87;;
18776;SDS011;9517;51.174;4.160;2023-04-03T01:34:29;20.67;;;10.47;;
18776;SDS011;9517;51.174;4.160;2023-04-03T01:36:57;20.17;;;10.40;;
18776;SDS011;9517;51.174;4.160;2023-04-03T01:39:24;20.80;;;10.40;;
18776;SDS011;9517;51.174;4.160;2023-04-03T01:41:51;19.20;;;9.97;;
18776;SDS011;9517;51.174;4.160;2023-04-03T01:44:18;18.43;;;9.93;;
18776;SDS011;9517;51.174;4.160;2023-04-03T01:46:45;16.57;;;9.97;;
18776;SDS011;9517;51.174;4.160;2023-04-03T01:49:14;20.27;;;10.07;;
18776;SDS011;9517;51.174;4.160;2023-04-03T01:51:40;20.03;;;10.17;;
18776;SDS011;9517;51.174;4.160;2023-04-03T01:54:08;16.10;;;9.47;;
18776;SDS011;9517;51.174;4.160;2023-04-03T01:56:35;21.93;;;10.57;;
18776;SDS011;9517;51.174;4.160;2023-04-03T01:59:04;22.13;;;10.70;;
18776;SDS011;9517;51.174;4.160;2023-04-03T02:01:31;18.47;;;10.33;;
18776;SDS011;9517;51.174;4.160;2023-04-03T02:03:58;20.77;;;9.83;;
18776;SDS011;9517;51.174;4.160;2023-04-03T02:06:26;16.77;;;9.60;;
18776;SDS011;9517;51.174;4.160;2023-04-03T02:08:53;18.93;;;9.63;;
18776;SDS011;9517;51.174;4.160;2023-04-03T02:11:20;18.67;;;9.43;;
18776;SDS011;9517;51.174;4.160;2023-04-03T02:13:47;17.57;;;10.03;;
18776;SDS011;9517;51.174;4.160;2023-04-03T02:16:14;18.43;;;10.40;;
18776;SDS011;9517;51.174;4.160;2023-04-03T02:18:41;20.17;;;10.90;;
18776;SDS011;9517;51.174;4.160;2023-04-03T02:21:08;16.40;;;9.90;;
18776;SDS011;9517;51.174;4.160;2023-04-03T02:23:37;19.13;;;10.60;;
18776;SDS011;9517;51.174;4.160;2023-04-03T02:26:05;20.07;;;10.70;;
18776;SDS011;9517;51.174;4.160;2023-04-03T02:28:33;19.40;;;10.83;;
18776;SDS011;9517;51.174;4.160;2023-04-03T02:31:01;18.43;;;10.50;;
18776;SDS011;9517;51.174;4.160;2023-04-03T02:33:28;22.30;;;10.83;;
18776;SDS011;9517;51.174;4.160;2023-04-03T02:35:55;19.43;;;11.13;;
18776;SDS011;9517;51.174;4.160;2023-04-03T02:38:23;20.53;;;11.40;;
18776;SDS011;9517;51.174;4.160;2023-04-03T02:40:52;19.17;;;10.30;;
18776;SDS011;9517;51.174;4.160;2023-04-03T02:43:19;21.63;;;10.60;;
18776;SDS011;9517;51.174;4.160;2023-04-03T02:45:46;20.40;;;10.77;;
18776;SDS011;9517;51.174;4.160;2023-04-03T02:48:13;18.23;;;10.70;;
18776;SDS011;9517;51.174;4.160;2023-04-03T02:50:41;19.60;;;10.93;;
18776;SDS011;9517;51.174;4.160;2023-04-03T02:53:08;17.77;;;10.80;;
18776;SDS011;9517;51.174;4.160;2023-04-03T02:55:35;20.73;;;11.40;;
18776;SDS011;9517;51.174;4.160;2023-04-03T02:58:04;20.37;;;10.97;;
18776;SDS011;9517;51.174;4.160;2023-04-03T03:00:31;16.93;;;10.07;;
18776;SDS011;9517;51.174;4.160;2023-04-03T03:02:58;24.27;;;10.70;;
18776;SDS011;9517;51.174;4.160;2023-04-03T03:05:26;19.10;;;9.80;;
18776;SDS011;9517;51.174;4.160;2023-04-03T03:07:53;21.63;;;11.43;;
18776;SDS011;9517;51.174;4.160;2023-04-03T03:10:21;19.23;;;11.17;;
18776;SDS011;9517;51.174;4.160;2023-04-03T03:12:48;21.77;;;11.70;;
18776;SDS011;9517;51.174;4.160;2023-04-03T03:15:17;25.37;;;11.73;;
18776;SDS011;9517;51.174;4.160;2023-04-03T03:17:44;23.13;;;12.57;;
18776;SDS011;9517;51.174;4.160;2023-04-03T03:20:12;20.10;;;11.47;;
18776;SDS011;9517;51.174;4.160;2023-04-03T03:22:40;23.40;;;12.70;;
18776;SDS011;9517;51.174;4.160;2023-04-03T03:25:08;23.47;;;11.47;;
18776;SDS011;9517;51.174;4.160;2023-04-03T03:27:35;23.23;;;12.20;;
18776;SDS011;9517;51.174;4.160;2023-04-03T03:30:02;22.57;;;11.97;;
18776;SDS011;9517;51.174;4.160;2023-04-03T03:32:32;22.27;;;12.63;;
18776;SDS011;9517;51.174;4.160;2023-04-03T03:34:59;23.20;;;12.30;;
18776;SDS011;9517;51.174;4.160;2023-04-03T03:37:26;21.70;;;12.23;;
18776;SDS011;9517;51.174;4.160;2023-04-03T03:39:53;24.67;;;12.93;;
18776;SDS011;9517;51.174;4.160;2023-04-03T03:42:20;22.30;;;12.57;;
18776;SDS011;9517;51.174;4.160;2023-04-03T03:44:47;24.87;;;12.67;;
18776;SDS011;9517;51.174;4.160;2023-04-03T03:47:14;19.83;;;11.57;;
18776;SDS011;9517;51.174;4.160;2023-04-03T03:49:43;22.80;;;12.40;;
18776;SDS011;9517;51.174;4.160;2023-04-03T03:52:10;22.93;;;12.10;;
18776;SDS011;9517;51.174;4.160;2023-04-03T03:54:37;21.80;;;12.70;;
18776;SDS011;9517;51.174;4.160;2023-04-03T03:57:04;23.50;;;12.97;;
18776;SDS011;9517;51.174;4.160;2023-04-03T03:59:31;22.80;;;12.57;;
18776;SDS011;9517;51.174;4.160;2023-04-03T04:01:58;24.87;;;12.33;;
18776;SDS011;9517;51.174;4.160;2023-04-03T04:04:26;21.70;;;12.67;;
18776;SDS011;9517;51.174;4.160;2023-04-03T04:06:54;22.70;;;12.03;;
18776;SDS011;9517;51.174;4.160;2023-04-03T04:09:21;21.33;;;11.33;;
18776;SDS011;9517;51.174;4.160;2023-04-03T04:11:48;25.00;;;13.07;;
18776;SDS011;9517;51.174;4.160;2023-04-03T04:14:15;23.90;;;12.67;;
18776;SDS011;9517;51.174;4.160;2023-04-03T04:16:42;19.13;;;11.60;;
18776;SDS011;9517;51.174;4.160;2023-04-03T04:19:09;21.60;;;12.80;;
18776;SDS011;9517;51.174;4.160;2023-04-03T04:21:37;26.77;;;13.33;;
18776;SDS011;9517;51.174;4.160;2023-04-03T04:24:06;22.43;;;13.83;;
18776;SDS011;9517;51.174;4.160;2023-04-03T04:26:33;27.07;;;13.27;;
18776;SDS011;9517;51.174;4.160;2023-04-03T04:29:00;22.97;;;13.50;;
18776;SDS011;9517;51.174;4.160;2023-04-03T04:31:27;22.37;;;12.67;;
18776;SDS011;9517;51.174;4.160;2023-04-03T04:33:54;21.63;;;12.63;;
18776;SDS011;9517;51.174;4.160;2023-04-03T04:36:21;25.20;;;13.17;;
18776;SDS011;9517;51.174;4.160;2023-04-03T04:38:49;23.70;;;13.97;;
18776;SDS011;9517;51.174;4.160;2023-04-03T04:41:19;22.33;;;13.03;;
18776;SDS011;9517;51.174;4.160;2023-04-03T04:43:47;23.60;;;12.97;;
18776;SDS011;9517;51.174;4.160;2023-04-03T04:46:14;27.23;;;13.57;;
18776;SDS011;9517;51.174;4.160;2023-04-03T04:48:42;28.30;;;14.33;;
18776;SDS011;9517;51.174;4.160;2023-04-03T04:51:09;25.27;;;14.43;;
18776;SDS011;9517;51.174;4.160;2023-04-03T04:53:36;26.70;;;13.27;;
18776;SDS011;9517;51.174;4.160;2023-04-03T04:56:04;23.40;;;13.47;;
18776;SDS011;9517;51.174;4.160;2023-04-03T04:58:33;24.63;;;12.83;;
18776;SDS011;9517;51.174;4.160;2023-04-03T05:01:00;23.07;;;13.97;;
18776;SDS011;9517;51.174;4.160;2023-04-03T05:03:27;27.10;;;14.03;;
18776;SDS011;9517;51.174;4.160;2023-04-03T05:05:54;25.53;;;13.73;;
18776;SDS011;9517;51.174;4.160;2023-04-03T05:08:21;22.57;;;13.67;;
18776;SDS011;9517;51.174;4.160;2023-04-03T05:10:51;22.53;;;13.50;;
18776;SDS011;9517;51.174;4.160;2023-04-03T05:13:19;26.10;;;14.20;;
18776;SDS011;9517;51.174;4.160;2023-04-03T05:15:47;25.97;;;14.80;;
18776;SDS011;9517;51.174;4.160;2023-04-03T05:18:15;24.17;;;13.60;;
18776;SDS011;9517;51.174;4.160;2023-04-03T05:20:41;24.40;;;14.03;;
18776;SDS011;9517;51.174;4.160;2023-04-03T05:23:09;25.03;;;12.90;;
18776;SDS011;9517;51.174;4.160;2023-04-03T05:25:37;24.60;;;13.40;;
18776;SDS011;9517;51.174;4.160;2023-04-03T05:28:04;23.03;;;13.43;;
18776;SDS011;9517;51.174;4.160;2023-04-03T05:30:31;26.20;;;13.80;;
18776;SDS011;9517;51.174;4.160;2023-04-03T05:33:00;25.33;;;13.23;;
18776;SDS011;9517;51.174;4.160;2023-04-03T05:35:27;23.30;;;12.83;;
18776;SDS011;9517;51.174;4.160;2023-04-03T05:37:54;27.03;;;14.03;;
18776;SDS011;9517;51.174;4.160;2023-04-03T05:40:21;23.50;;;13.73;;
18776;SDS011;9517;51.174;4.160;2023-04-03T05:42:48;25.27;;;13.97;;
18776;SDS011;9517;51.174;4.160;2023-04-03T05:45:18;24.40;;;14.77;;
18776;SDS011;9517;51.174;4.160;2023-04-03T05:47:45;24.73;;;14.67;;
18776;SDS011;9517;51.174;4.160;2023-04-03T05:50:14;26.67;;;15.30;;
18776;SDS011;9517;51.174;4.160;2023-04-03T05:52:42;27.70;;;15.93;;
18776;SDS011;9517;51.174;4.160;2023-04-03T05:55:12;30.13;;;16.13;;
18776;SDS011;9517;51.174;4.160;2023-04-03T05:57:39;29.03;;;16.63;;
18776;SDS011;9517;51.174;4.160;2023-04-03T06:00:06;28.60;;;16.13;;
18776;SDS011;9517;51.174;4.160;2023-04-03T06:02:35;28.57;;;17.10;;
18776;SDS011;9517;51.174;4.160;2023-04-03T06:05:02;29.47;;;17.50;;
18776;SDS011;9517;51.174;4.160;2023-04-03T06:07:31;34.23;;;17.50;;
18776;SDS011;9517;51.174;4.160;2023-04-03T06:09:59;28.47;;;17.43;;
18776;SDS011;9517;51.174;4.160;2023-04-03T06:12:26;32.33;;;18.13;;
18776;SDS011;9517;51.174;4.160;2023-04-03T06:14:54;30.37;;;17.37;;
18776;SDS011;9517;51.174;4.160;2023-04-03T06:17:21;30.90;;;17.67;;
18776;SDS011;9517;51.174;4.160;2023-04-03T06:19:48;34.10;;;17.80;;
18776;SDS011;9517;51.174;4.160;2023-04-03T06:22:16;31.03;;;18.50;;
18776;SDS011;9517;51.174;4.160;2023-04-03T06:24:44;31.40;;;18.10;;
18776;SDS011;9517;51.174;4.160;2023-04-03T06:27:11;34.10;;;18.70;;
18776;SDS011;9517;51.174;4.160;2023-04-03T06:29:38;30.33;;;17.77;;
18776;SDS011;9517;51.174;4.160;2023-04-03T06:32:06;32.60;;;19.20;;
18776;SDS011;9517;51.174;4.160;2023-04-03T06:34:33;34.83;;;19.90;;
18776;SDS011;9517;51.174;4.160;2023-04-03T06:37:00;33.33;;;18.50;;
18776;SDS011;9517;51.174;4.160;2023-04-03T06:39:27;33.27;;;20.27;;
18776;SDS011;9517;51.174;4.160;2023-04-03T06:42:03;36.33;;;19.97;;
18776;SDS011;9517;51.174;4.160;2023-04-03T06:44:32;33.00;;;20.53;;
18776;SDS011;9517;51.174;4.160;2023-04-03T06:47:00;32.03;;;20.60;;
18776;SDS011;9517;51.174;4.160;2023-04-03T06:49:28;34.37;;;21.03;;
18776;SDS011;9517;51.174;4.160;2023-04-03T06:51:55;39.77;;;21.97;;
18776;SDS011;9517;51.174;4.160;2023-04-03T06:54:24;35.93;;;21.83;;
18776;SDS011;9517;51.174;4.160;2023-04-03T06:56:53;38.40;;;21.27;;
18776;SDS011;9517;51.174;4.160;2023-04-03T06:59:27;35.63;;;22.47;;
18776;SDS011;9517;51.174;4.160;2023-04-03T07:01:54;31.50;;;19.90;;
18776;SDS011;9517;51.174;4.160;2023-04-03T07:04:21;33.90;;;18.57;;
18776;SDS011;9517;51.174;4.160;2023-04-03T07:06:48;28.13;;;18.80;;
18776;SDS011;9517;51.174;4.160;2023-04-03T07:09:15;31.33;;;17.10;;
18776;SDS011;9517;51.174;4.160;2023-04-03T07:11:43;29.10;;;16.77;;
18776;SDS011;9517;51.174;4.160;2023-04-03T07:14:11;25.63;;;15.33;;
18776;SDS011;9517;51.174;4.160;2023-04-03T07:16:48;25.83;;;15.13;;
18776;SDS011;9517;51.174;4.160;2023-04-03T07:19:16;26.60;;;14.73;;
18776;SDS011;9517;51.174;4.160;2023-04-03T07:21:45;26.83;;;14.50;;
18776;SDS011;9517;51.174;4.160;2023-04-03T07:24:26;26.00;;;14.30;;
18776;SDS011;9517;51.174;4.160;2023-04-03T07:26:55;22.13;;;13.73;;
18776;SDS011;9517;51.174;4.160;2023-04-03T07:29:22;20.20;;;11.77;;
18776;SDS011;9517;51.174;4.160;2023-04-03T07:31:52;21.50;;;12.00;;
18776;SDS011;9517;51.174;4.160;2023-04-03T07:34:20;25.47;;;11.53;;
18776;SDS011;9517;51.174;4.160;2023-04-03T07:36:48;19.13;;;11.00;;
18776;SDS011;9517;51.174;4.160;2023-04-03T07:39:18;20.10;;;9.83;;
18776;SDS011;9517;51.174;4.160;2023-04-03T07:41:54;21.30;;;9.23;;
18776;SDS011;9517;51.174;4.160;2023-04-03T07:44:35;18.03;;;8.00;;
18776;SDS011;9517;51.174;4.160;2023-04-03T07:47:05;18.00;;;8.20;;
18776;SDS011;9517;51.174;4.160;2023-04-03T07:49:33;18.77;;;7.97;;
18776;SDS011;9517;51.174;4.160;2023-04-03T07:52:04;19.07;;;7.30;;
18776;SDS011;9517;51.174;4.160;2023-04-03T07:54:34;16.17;;;7.00;;
18776;SDS011;9517;51.174;4.160;2023-04-03T07:57:01;18.00;;;7.27;;
18776;SDS011;9517;51.174;4.160;2023-04-03T07:59:42;17.90;;;6.63;;
18776;SDS011;9517;51.174;4.160;2023-04-03T08:02:12;15.07;;;6.87;;
18776;SDS011;9517;51.174;4.160;2023-04-03T08:04:41;18.93;;;7.07;;
18776;SDS011;9517;51.174;4.160;2023-04-03T08:07:08;16.07;;;6.60;;
18776;SDS011;9517;51.174;4.160;2023-04-03T08:09:35;15.07;;;6.90;;
18776;SDS011;9517;51.174;4.160;2023-04-03T08:12:03;16.23;;;6.03;;
18776;SDS011;9517;51.174;4.160;2023-04-03T08:14:30;15.30;;;5.90;;
18776;SDS011;9517;51.174;4.160;2023-04-03T08:16:59;15.67;;;5.73;;
18776;SDS011;9517;51.174;4.160;2023-04-03T08:19:30;13.27;;;6.00;;
18776;SDS011;9517;51.174;4.160;2023-04-03T08:22:16;12.70;;;5.23;;
18776;SDS011;9517;51.174;4.160;2023-04-03T08:24:43;15.40;;;5.73;;
18776;SDS011;9517;51.174;4.160;2023-04-03T08:27:10;13.43;;;5.10;;
18776;SDS011;9517;51.174;4.160;2023-04-03T08:29:37;15.40;;;5.40;;
18776;SDS011;9517;51.174;4.160;2023-04-03T08:32:05;12.03;;;4.87;;
18776;SDS011;9517;51.174;4.160;2023-04-03T08:34:33;15.03;;;4.97;;
18776;SDS011;9517;51.174;4.160;2023-04-03T08:37:02;13.03;;;4.53;;
18776;SDS011;9517;51.174;4.160;2023-04-03T08:39:29;13.87;;;4.37;;
18776;SDS011;9517;51.174;4.160;2023-04-03T08:41:57;14.83;;;4.43;;
18776;SDS011;9517;51.174;4.160;2023-04-03T08:44:31;10.87;;;4.03;;
18776;SDS011;9517;51.174;4.160;2023-04-03T08:47:12;11.40;;;3.87;;
18776;SDS011;9517;51.174;4.160;2023-04-03T08:49:49;11.47;;;3.97;;
18776;SDS011;9517;51.174;4.160;2023-04-03T08:52:20;11.90;;;3.80;;
18776;SDS011;9517;51.174;4.160;2023-04-03T08:54:54;12.90;;;3.70;;
18776;SDS011;9517;51.174;4.160;2023-04-03T08:57:28;13.50;;;3.90;;
18776;SDS011;9517;51.174;4.160;2023-04-03T09:00:15;9.07;;;3.17;;
18776;SDS011;9517;51.174;4.160;2023-04-03T09:02:46;14.00;;;3.50;;
18776;SDS011;9517;51.174;4.160;2023-04-03T09:05:17;10.70;;;3.53;;
18776;SDS011;9517;51.174;4.160;2023-04-03T09:07:47;10.80;;;3.00;;
18776;SDS011;9517;51.174;4.160;2023-04-03T09:10:23;14.40;;;3.00;;
18776;SDS011;9517;51.174;4.160;2023-04-03T09:12:58;11.80;;;2.80;;
18776;SDS011;9517;51.174;4.160;2023-04-03T09:15:29;10.10;;;3.17;;
18776;SDS011;9517;51.174;4.160;2023-04-03T09:17:59;17.97;;;3.50;;
18776;SDS011;9517;51.174;4.160;2023-04-03T09:20:38;11.10;;;2.90;;
18776;SDS011;9517;51.174;4.160;2023-04-03T09:23:13;9.40;;;2.90;;
18776;SDS011;9517;51.174;4.160;2023-04-03T09:25:47;10.70;;;2.70;;
18776;SDS011;9517;51.174;4.160;2023-04-03T09:28:15;10.17;;;3.20;;
18776;SDS011;9517;51.174;4.160;2023-04-03T09:30:42;12.15;;;3.00;;
18776;SDS011;9517;51.174;4.160;2023-04-03T09:33:09;11.40;;;2.80;;
18776;SDS011;9517;51.174;4.160;2023-04-03T09:35:40;11.80;;;2.93;;
18776;SDS011;9517;51.174;4.160;2023-04-03T09:38:17;9.53;;;2.60;;
18776;SDS011;9517;51.174;4.160;2023-04-03T09:40:47;10.77;;;2.83;;
18776;SDS011;9517;51.174;4.160;2023-04-03T09:43:23;11.80;;;2.53;;
18776;SDS011;9517;51.174;4.160;2023-04-03T09:45:52;9.20;;;2.40;;
18776;SDS011;9517;51.174;4.160;2023-04-03T09:48:22;10.13;;;2.63;;
18776;SDS011;9517;51.174;4.160;2023-04-03T09:50:58;9.70;;;2.50;;
18776;SDS011;9517;51.174;4.160;2023-04-03T09:53:30;14.50;;;2.77;;
18776;SDS011;9517;51.174;4.160;2023-04-03T09:56:00;10.87;;;2.60;;
18776;SDS011;9517;51.174;4.160;2023-04-03T09:58:30;8.80;;;2.27;;
18776;SDS011;9517;51.174;4.160;2023-04-03T10:01:00;9.13;;;2.43;;
18776;SDS011;9517;51.174;4.160;2023-04-03T10:03:30;10.10;;;2.27;;
18776;SDS011;9517;51.174;4.160;2023-04-03T10:06:00;10.37;;;2.33;;
18776;SDS011;9517;51.174;4.160;2023-04-03T10:08:29;12.23;;;2.80;;
18776;SDS011;9517;51.174;4.160;2023-04-03T10:11:14;8.43;;;2.28;;
18776;SDS011;9517;51.174;4.160;2023-04-03T10:16:35;8.27;;;2.10;;
18776;SDS011;9517;51.174;4.160;2023-04-03T10:19:09;12.20;;;2.57;;
18776;SDS011;9517;51.174;4.160;2023-04-03T10:21:50;7.60;;;2.53;;
18776;SDS011;9517;51.174;4.160;2023-04-03T10:24:23;13.37;;;2.50;;
18776;SDS011;9517;51.174;4.160;2023-04-03T10:26:56;12.85;;;2.83;;
18776;SDS011;9517;51.174;4.160;2023-04-03T10:29:34;11.07;;;2.43;;
18776;SDS011;9517;51.174;4.160;2023-04-03T10:32:10;8.47;;;2.40;;
18776;SDS011;9517;51.174;4.160;2023-04-03T10:34:45;13.77;;;2.83;;
18776;SDS011;9517;51.174;4.160;2023-04-03T10:37:18;10.47;;;2.47;;
18776;SDS011;9517;51.174;4.160;2023-04-03T10:39:52;8.47;;;2.13;;
18776;SDS011;9517;51.174;4.160;2023-04-03T10:42:25;7.83;;;1.90;;
18776;SDS011;9517;51.174;4.160;2023-04-03T10:45:03;8.23;;;2.33;;
18776;SDS011;9517;51.174;4.160;2023-04-03T10:47:43;7.27;;;2.00;;
18776;SDS011;9517;51.174;4.160;2023-04-03T10:50:26;5.97;;;1.97;;
18776;SDS011;9517;51.174;4.160;2023-04-03T10:53:09;9.00;;;2.10;;
18776;SDS011;9517;51.174;4.160;2023-04-03T10:55:46;7.97;;;1.83;;
18776;SDS011;9517;51.174;4.160;2023-04-03T10:58:20;8.27;;;1.83;;
18776;SDS011;9517;51.174;4.160;2023-04-03T11:00:51;8.87;;;2.10;;
18776;SDS011;9517;51.174;4.160;2023-04-03T11:03:26;5.47;;;1.70;;
18776;SDS011;9517;51.174;4.160;2023-04-03T11:05:57;8.10;;;2.23;;
18776;SDS011;9517;51.174;4.160;2023-04-03T11:08:40;7.10;;;1.93;;
18776;SDS011;9517;51.174;4.160;2023-04-03T11:11:11;6.00;;;1.97;;
18776;SDS011;9517;51.174;4.160;2023-04-03T11:13:42;8.47;;;1.67;;
18776;SDS011;9517;51.174;4.160;2023-04-03T11:16:17;6.10;;;1.73;;
18776;SDS011;9517;51.174;4.160;2023-04-03T11:18:51;8.10;;;1.67;;
18776;SDS011;9517;51.174;4.160;2023-04-03T11:21:29;7.73;;;1.90;;
18776;SDS011;9517;51.174;4.160;2023-04-03T11:24:11;7.87;;;1.57;;
18776;SDS011;9517;51.174;4.160;2023-04-03T11:26:47;3.43;;;1.10;;
18776;SDS011;9517;51.174;4.160;2023-04-03T11:29:18;9.93;;;2.10;;
18776;SDS011;9517;51.174;4.160;2023-04-03T11:31:56;6.10;;;1.60;;
18776;SDS011;9517;51.174;4.160;2023-04-03T11:34:39;7.27;;;1.33;;
18776;SDS011;9517;51.174;4.160;2023-04-03T11:37:13;7.87;;;1.77;;
18776;SDS011;9517;51.174;4.160;2023-04-03T11:39:48;5.23;;;1.50;;
18776;SDS011;9517;51.174;4.160;2023-04-03T11:42:34;5.50;;;1.50;;
18776;SDS011;9517;51.174;4.160;2023-04-03T11:45:15;7.67;;;1.67;;
18776;SDS011;9517;51.174;4.160;2023-04-03T11:47:56;7.13;;;1.67;;
18776;SDS011;9517;51.174;4.160;2023-04-03T11:50:30;10.87;;;1.40;;
18776;SDS011;9517;51.174;4.160;2023-04-03T11:55:56;4.93;;;1.40;;
18776;SDS011;9517;51.174;4.160;2023-04-03T11:58:31;6.90;;;1.40;;
18776;SDS011;9517;51.174;4.160;2023-04-03T12:01:08;7.77;;;1.60;;
18776;SDS011;9517;51.174;4.160;2023-04-03T12:09:57;4.93;;;1.37;;
18776;SDS011;9517;51.174;4.160;2023-04-03T12:12:43;7.50;;;1.40;;
18776;SDS011;9517;51.174;4.160;2023-04-03T12:24:34;7.47;;;1.33;;
18776;SDS011;9517;51.174;4.160;2023-04-03T12:35:49;4.67;;;0.90;;
18776;SDS011;9517;51.174;4.160;2023-04-03T12:38:29;6.17;;;1.30;;
18776;SDS011;9517;51.174;4.160;2023-04-03T12:41:21;6.63;;;1.30;;
18776;SDS011;9517;51.174;4.160;2023-04-03T12:46:46;4.63;;;0.93;;
18776;SDS011;9517;51.174;4.160;2023-04-03T12:49:31;4.63;;;0.93;;
18776;SDS011;9517;51.174;4.160;2023-04-03T12:52:02;3.93;;;1.00;;
18776;SDS011;9517;51.174;4.160;2023-04-03T12:54:32;6.00;;;1.23;;
18776;SDS011;9517;51.174;4.160;2023-04-03T12:57:11;5.23;;;1.63;;
18776;SDS011;9517;51.174;4.160;2023-04-03T12:59:40;2.97;;;0.90;;
18776;SDS011;9517;51.174;4.160;2023-04-03T13:02:23;4.47;;;1.20;;
18776;SDS011;9517;51.174;4.160;2023-04-03T13:05:06;6.83;;;1.30;;
18776;SDS011;9517;51.174;4.160;2023-04-03T13:07:36;3.77;;;1.00;;
18776;SDS011;9517;51.174;4.160;2023-04-03T13:10:13;6.30;;;1.40;;
18776;SDS011;9517;51.174;4.160;2023-04-03T13:12:46;6.10;;;1.30;;
18776;SDS011;9517;51.174;4.160;2023-04-03T13:15:16;4.23;;;1.50;;
18776;SDS011;9517;51.174;4.160;2023-04-03T13:17:46;3.87;;;1.03;;
18776;SDS011;9517;51.174;4.160;2023-04-03T13:20:18;5.43;;;1.30;;
18776;SDS011;9517;51.174;4.160;2023-04-03T13:22:53;6.23;;;1.20;;
18776;SDS011;9517;51.174;4.160;2023-04-03T13:25:24;4.90;;;1.20;;
18776;SDS011;9517;51.174;4.160;2023-04-03T13:27:54;3.67;;;1.13;;
18776;SDS011;9517;51.174;4.160;2023-04-03T13:30:24;5.47;;;1.50;;
18776;SDS011;9517;51.174;4.160;2023-04-03T13:32:55;5.00;;;1.40;;
18776;SDS011;9517;51.174;4.160;2023-04-03T13:35:34;6.33;;;1.43;;
18776;SDS011;9517;51.174;4.160;2023-04-03T13:38:06;4.40;;;1.47;;
18776;SDS011;9517;51.174;4.160;2023-04-03T13:40:48;4.07;;;1.20;;
18776;SDS011;9517;51.174;4.160;2023-04-03T13:43:17;3.97;;;1.10;;
18776;SDS011;9517;51.174;4.160;2023-04-03T13:45:53;4.30;;;1.30;;
18776;SDS011;9517;51.174;4.160;2023-04-03T13:48:24;4.97;;;1.30;;
18776;SDS011;9517;51.174;4.160;2023-04-03T13:50:52;4.33;;;1.13;;
18776;SDS011;9517;51.174;4.160;2023-04-03T13:53:22;5.00;;;1.50;;
18776;SDS011;9517;51.174;4.160;2023-04-03T13:55:55;4.57;;;1.20;;
18776;SDS011;9517;51.174;4.160;2023-04-03T13:58:31;6.97;;;1.50;;
18776;SDS011;9517;51.174;4.160;2023-04-03T14:01:10;6.77;;;1.30;;
18776;SDS011;9517;51.174;4.160;2023-04-03T14:03:46;5.53;;;1.47;;
18776;SDS011;9517;51.174;4.160;2023-04-03T14:06:18;6.30;;;1.40;;
18776;SDS011;9517;51.174;4.160;2023-04-03T14:08:46;17.17;;;1.77;;
18776;SDS011;9517;51.174;4.160;2023-04-03T14:11:14;6.67;;;1.50;;
18776;SDS011;9517;51.174;4.160;2023-04-03T14:13:43;4.00;;;1.17;;
18776;SDS011;9517;51.174;4.160;2023-04-03T14:16:13;4.77;;;1.10;;
18776;SDS011;9517;51.174;4.160;2023-04-03T14:18:42;5.47;;;1.30;;
18776;SDS011;9517;51.174;4.160;2023-04-03T14:21:13;5.80;;;1.57;;
18776;SDS011;9517;51.174;4.160;2023-04-03T14:23:41;7.77;;;1.40;;
18776;SDS011;9517;51.174;4.160;2023-04-03T14:26:09;5.83;;;1.30;;
18776;SDS011;9517;51.174;4.160;2023-04-03T14:28:39;7.47;;;1.27;;
18776;SDS011;9517;51.174;4.160;2023-04-03T14:31:06;6.10;;;1.30;;
18776;SDS011;9517;51.174;4.160;2023-04-03T14:33:33;4.57;;;1.13;;
18776;SDS011;9517;51.174;4.160;2023-04-03T14:36:02;6.73;;;1.47;;
18776;SDS011;9517;51.174;4.160;2023-04-03T14:38:39;4.33;;;1.20;;
18776;SDS011;9517;51.174;4.160;2023-04-03T14:41:07;5.43;;;1.10;;
18776;SDS011;9517;51.174;4.160;2023-04-03T14:43:38;6.03;;;1.50;;
18776;SDS011;9517;51.174;4.160;2023-04-03T14:46:05;3.27;;;1.00;;
18776;SDS011;9517;51.174;4.160;2023-04-03T14:48:37;5.07;;;1.10;;
18776;SDS011;9517;51.174;4.160;2023-04-03T14:51:05;8.60;;;1.50;;
18776;SDS011;9517;51.174;4.160;2023-04-03T14:53:33;5.37;;;1.60;;
18776;SDS011;9517;51.174;4.160;2023-04-03T14:56:01;4.93;;;1.00;;
18776;SDS011;9517;51.174;4.160;2023-04-03T14:58:31;9.47;;;1.60;;
18776;SDS011;9517;51.174;4.160;2023-04-03T15:00:58;5.93;;;1.30;;
18776;SDS011;9517;51.174;4.160;2023-04-03T15:03:25;6.93;;;1.30;;
18776;SDS011;9517;51.174;4.160;2023-04-03T15:05:52;6.10;;;1.23;;
18776;SDS011;9517;51.174;4.160;2023-04-03T15:08:20;6.00;;;1.50;;
18776;SDS011;9517;51.174;4.160;2023-04-03T15:10:50;6.10;;;1.43;;
18776;SDS011;9517;51.174;4.160;2023-04-03T15:13:21;4.53;;;1.10;;
18776;SDS011;9517;51.174;4.160;2023-04-03T15:15:48;6.17;;;1.13;;
18776;SDS011;9517;51.174;4.160;2023-04-03T15:18:17;4.63;;;1.20;;
18776;SDS011;9517;51.174;4.160;2023-04-03T15:20:47;6.07;;;1.30;;
18776;SDS011;9517;51.174;4.160;2023-04-03T15:23:15;7.37;;;1.40;;
18776;SDS011;9517;51.174;4.160;2023-04-03T15:25:43;7.17;;;1.07;;
18776;SDS011;9517;51.174;4.160;2023-04-03T15:28:15;6.00;;;1.30;;
18776;SDS011;9517;51.174;4.160;2023-04-03T15:30:45;4.00;;;1.30;;
18776;SDS011;9517;51.174;4.160;2023-04-03T15:33:12;4.97;;;1.20;;
18776;SDS011;9517;51.174;4.160;2023-04-03T15:35:40;4.77;;;1.20;;
18776;SDS011;9517;51.174;4.160;2023-04-03T15:38:08;5.50;;;1.20;;
18776;SDS011;9517;51.174;4.160;2023-04-03T15:40:35;5.50;;;1.50;;